Time;durP1;ratioP1;P1;durP2;ratioP2;P2;SDS_P1;SDS_P2;PMS_P1;PMS_P2;Temp;Humidity;BMP_temperature;BMP_pressure;BME280_temperature;BME280_humidity;BME280_pressure;Samples;Min_cycle;Max_cycle;Signal;HPM_P1;HPM_P2
2022/01/27 00:05:45;;;;;;;3.27;3.07;;;18.30;38.30;;;;;;5045726;28;20474;-65
2022/01/27 00:08:15;;;;;;;3.47;3.27;;;18.40;38.40;;;;;;5039007;28;20460;-65
2022/01/27 00:13:16;;;;;;;3.47;3.27;;;18.30;38.30;;;;;;5036498;28;20464;-65
2022/01/27 00:15:45;;;;;;;3.50;3.30;;;18.30;38.30;;;;;;5040087;28;20494;-65
2022/01/27 00:18:17;;;;;;;3.20;3.00;;;18.30;38.30;;;;;;5041801;28;20535;-65
2022/01/27 00:20:44;;;;;;;3.67;3.37;;;18.40;38.40;;;;;;5045046;28;20448;-65
2022/01/27 00:23:09;;;;;;;3.10;2.80;;;18.30;38.50;;;;;;5043983;28;20445;-65
2022/01/27 00:25:35;;;;;;;4.40;4.10;;;18.30;38.30;;;;;;5041488;28;21599;-65
2022/01/27 00:28:01;;;;;;;3.93;3.63;;;18.40;38.40;;;;;;5042800;28;20217;-65
2022/01/27 00:30:26;;;;;;;4.27;3.93;;;18.30;38.30;;;;;;5039997;28;20332;-65
2022/01/27 00:32:52;;;;;;;3.73;3.43;;;18.40;38.30;;;;;;5042207;28;20228;-64
2022/01/27 00:35:18;;;;;;;3.83;3.57;;;18.30;38.30;;;;;;5041691;28;20230;-65
2022/01/27 00:37:43;;;;;;;3.40;3.20;;;18.30;38.30;;;;;;5041551;28;20238;-64
2022/01/27 00:40:12;;;;;;;3.97;3.70;;;18.30;38.30;;;;;;5040253;28;20220;-64
2022/01/27 00:42:38;;;;;;;2.87;2.67;;;18.30;38.30;;;;;;5037083;28;20211;-65
2022/01/27 00:45:04;;;;;;;4.30;3.93;;;18.30;38.30;;;;;;5036950;28;20932;-65
2022/01/27 00:47:30;;;;;;;3.47;3.17;;;18.30;38.30;;;;;;5038830;28;20442;-65
2022/01/27 00:49:56;;;;;;;3.70;3.50;;;18.30;38.20;;;;;;5038695;28;20443;-64
2022/01/27 00:52:32;;;;;;;3.87;3.67;;;18.30;38.30;;;;;;5045164;28;20218;-64
2022/01/27 00:54:57;;;;;;;3.93;3.70;;;18.30;38.30;;;;;;5047665;28;20485;-64
2022/01/27 01:00:10;;;;;;;3.57;3.37;;;18.30;38.30;;;;;;5045148;28;20225;-65
2022/01/27 01:07:40;;;;;;;3.80;3.30;;;18.30;38.30;;;;;;5045222;28;20956;-65
2022/01/27 01:15:36;;;;;;;3.40;3.20;;;18.30;38.30;;;;;;5044711;28;20469;-65
2022/01/27 01:18:58;;;;;;;3.37;3.10;;;18.30;38.30;;;;;;5046628;28;20913;-65
2022/01/27 01:31:51;;;;;;;3.33;3.13;;;18.30;38.20;;;;;;5046535;28;20910;-64
2022/01/27 01:34:20;;;;;;;3.20;3.00;;;18.30;38.20;;;;;;5042364;28;20450;-65
2022/01/27 01:37:00;;;;;;;4.73;4.33;;;18.30;38.20;;;;;;5045173;28;20455;-65
2022/01/27 01:39:33;;;;;;;3.40;3.20;;;18.30;38.20;;;;;;5045217;28;20478;-64
2022/01/27 01:42:01;;;;;;;3.73;3.53;;;18.30;38.10;;;;;;5046571;28;20446;-65
2022/01/27 01:44:28;;;;;;;2.73;2.53;;;18.30;38.10;;;;;;5047460;28;20439;-64
2022/01/27 01:46:54;;;;;;;3.93;3.53;;;18.30;38.10;;;;;;5043104;28;20532;-64
2022/01/27 01:49:23;;;;;;;3.43;3.23;;;18.30;38.00;;;;;;5040524;28;20464;-64
2022/01/27 01:51:49;;;;;;;3.33;3.13;;;18.30;38.10;;;;;;5049754;28;21313;-64
2022/01/27 01:54:15;;;;;;;3.80;3.60;;;18.30;38.00;;;;;;5045904;28;20465;-64
2022/01/27 01:56:42;;;;;;;3.73;3.50;;;18.30;38.10;;;;;;5048190;28;20463;-64
2022/01/27 01:59:08;;;;;;;3.87;3.53;;;18.30;38.00;;;;;;5089393;28;20518;-64
2022/01/27 02:01:35;;;;;;;3.67;3.37;;;18.30;38.10;;;;;;5043200;28;20523;-64
2022/01/27 02:04:06;;;;;;;3.00;2.80;;;18.30;38.10;;;;;;5045271;28;20242;-64
2022/01/27 02:06:39;;;;;;;4.20;3.60;;;18.30;38.10;;;;;;5043506;28;20434;-64
2022/01/27 02:20:07;;;;;;;4.17;3.87;;;18.30;38.10;;;;;;5010743;28;20466;-64
2022/01/27 02:22:33;;;;;;;3.27;2.93;;;18.30;38.10;;;;;;5027908;28;20437;-64
2022/01/27 02:24:59;;;;;;;2.97;2.77;;;18.30;38.10;;;;;;5040385;28;20492;-64
2022/01/27 02:27:25;;;;;;;4.30;4.00;;;18.30;38.10;;;;;;5041445;28;20222;-64
2022/01/27 02:29:51;;;;;;;3.40;2.77;;;18.30;38.80;;;;;;5040852;28;20590;-64
2022/01/27 02:32:17;;;;;;;3.40;3.13;;;18.30;38.10;;;;;;5042358;28;20226;-64
2022/01/27 02:34:43;;;;;;;3.33;3.13;;;18.30;38.10;;;;;;5047516;28;20221;-64
2022/01/27 02:37:10;;;;;;;3.20;3.00;;;18.30;38.00;;;;;;5041158;28;20455;-65
2022/01/27 02:39:36;;;;;;;3.57;3.27;;;18.30;38.00;;;;;;5039212;28;20477;-64
2022/01/27 02:42:11;;;;;;;5.23;3.03;;;18.30;38.00;;;;;;5040375;28;21032;-65
2022/01/27 02:44:45;;;;;;;3.13;2.93;;;18.30;38.00;;;;;;5077592;28;21405;-65
2022/01/27 02:47:15;;;;;;;3.03;2.83;;;18.30;38.00;;;;;;5043872;28;20490;-64
2022/01/27 02:49:42;;;;;;;3.80;3.60;;;18.30;38.00;;;;;;5045477;28;20531;-64
2022/01/27 02:52:08;;;;;;;3.70;3.50;;;18.30;38.00;;;;;;5045261;28;20423;-64
2022/01/27 02:54:35;;;;;;;3.13;2.93;;;18.30;38.00;;;;;;5042309;28;20422;-64
2022/01/27 02:57:01;;;;;;;4.47;3.30;;;18.30;38.00;;;;;;5038074;28;20494;-64
2022/01/27 02:59:26;;;;;;;3.67;3.47;;;18.30;37.90;;;;;;5038532;28;20440;-64
2022/01/27 03:01:52;;;;;;;3.13;2.93;;;18.30;37.90;;;;;;5040167;28;20277;-64
2022/01/27 03:04:19;;;;;;;2.67;2.47;;;18.30;38.00;;;;;;5042293;28;20671;-64
2022/01/27 03:06:46;;;;;;;3.00;2.80;;;18.30;37.90;;;;;;5042668;28;20306;-64
2022/01/27 03:09:12;;;;;;;3.07;2.87;;;18.30;37.90;;;;;;5040502;28;20502;-64
2022/01/27 03:11:48;;;;;;;3.43;3.23;;;18.30;37.90;;;;;;5037604;28;20460;-64
2022/01/27 03:14:16;;;;;;;3.13;2.93;;;18.30;37.80;;;;;;5046654;28;20456;-65
2022/01/27 03:16:43;;;;;;;3.27;3.07;;;18.30;37.80;;;;;;5040138;28;20459;-64
2022/01/27 03:19:08;;;;;;;3.53;3.33;;;18.30;37.90;;;;;;5043997;28;20485;-64
2022/01/27 03:21:35;;;;;;;2.93;2.73;;;18.30;37.90;;;;;;5041707;28;20535;-64
2022/01/27 03:24:01;;;;;;;3.23;3.03;;;18.30;37.90;;;;;;5038220;28;20218;-64
2022/01/27 03:26:27;;;;;;;3.00;2.80;;;18.30;37.90;;;;;;5040540;28;20848;-64
2022/01/27 03:28:53;;;;;;;3.60;3.30;;;18.30;38.00;;;;;;5038402;28;20435;-64
2022/01/27 03:31:19;;;;;;;3.30;3.10;;;18.30;38.00;;;;;;5043461;28;20517;-65
2022/01/27 03:33:45;;;;;;;3.20;3.00;;;18.30;38.00;;;;;;5042058;28;20474;-64
2022/01/27 03:36:12;;;;;;;3.23;3.03;;;18.30;37.90;;;;;;5041049;28;20820;-64
2022/01/27 03:38:38;;;;;;;3.23;3.00;;;18.30;38.00;;;;;;5041433;28;20511;-64
2022/01/27 03:41:06;;;;;;;3.53;3.33;;;18.30;38.00;;;;;;5039076;28;20455;-64
2022/01/27 03:43:32;;;;;;;3.10;2.90;;;18.30;37.80;;;;;;5038306;28;20444;-64
2022/01/27 03:45:58;;;;;;;3.03;2.83;;;18.30;37.80;;;;;;5039557;28;20426;-66
2022/01/27 03:48:24;;;;;;;3.60;3.30;;;18.30;37.80;;;;;;5039420;28;20226;-64
2022/01/27 03:50:49;;;;;;;2.67;2.47;;;18.30;37.80;;;;;;5044061;28;20218;-66
2022/01/27 03:53:15;;;;;;;3.43;3.13;;;18.30;37.80;;;;;;5040376;28;20276;-64
2022/01/27 03:55:41;;;;;;;3.07;2.87;;;18.30;37.80;;;;;;5039767;28;20252;-64
2022/01/27 03:58:07;;;;;;;3.13;2.93;;;18.30;37.80;;;;;;5037760;28;20240;-64
2022/01/27 04:00:34;;;;;;;2.90;2.70;;;18.30;37.90;;;;;;5043161;28;20419;-65
2022/01/27 04:03:04;;;;;;;3.00;2.80;;;18.30;37.80;;;;;;5039015;28;20534;-65
2022/01/27 04:05:35;;;;;;;2.83;2.63;;;18.30;37.80;;;;;;5041785;28;20498;-65
2022/01/27 04:08:01;;;;;;;2.80;2.60;;;18.30;37.80;;;;;;5039962;28;20976;-64
2022/01/27 04:10:27;;;;;;;3.20;3.00;;;18.30;37.80;;;;;;5045155;28;20455;-64
2022/01/27 04:12:52;;;;;;;3.10;2.90;;;18.30;37.70;;;;;;5040809;28;20919;-64
2022/01/27 04:15:18;;;;;;;3.50;2.90;;;18.30;37.70;;;;;;5042228;28;20683;-64
2022/01/27 04:17:44;;;;;;;2.87;2.67;;;18.30;37.70;;;;;;5040919;28;20209;-64
2022/01/27 04:20:10;;;;;;;3.53;3.33;;;18.30;37.70;;;;;;5042604;28;20234;-64
2022/01/27 04:22:35;;;;;;;3.00;2.70;;;18.30;37.70;;;;;;5040241;28;20222;-64
2022/01/27 04:25:01;;;;;;;2.70;2.50;;;18.30;37.70;;;;;;5036757;28;20468;-65
2022/01/27 04:27:31;;;;;;;3.00;2.80;;;18.30;37.80;;;;;;5040562;28;20241;-64
2022/01/27 04:29:57;;;;;;;2.87;2.67;;;18.30;37.70;;;;;;5041154;28;20701;-64
2022/01/27 04:32:28;;;;;;;3.13;2.93;;;18.30;37.80;;;;;;5039556;28;20436;-64
2022/01/27 04:35:00;;;;;;;2.77;2.57;;;18.30;37.70;;;;;;5041673;28;20237;-64
2022/01/27 04:37:27;;;;;;;2.63;2.43;;;18.30;37.80;;;;;;5039162;28;20441;-64
2022/01/27 04:40:02;;;;;;;2.93;2.63;;;18.30;37.70;;;;;;5047728;28;20541;-64
2022/01/27 04:42:44;;;;;;;3.67;3.43;;;18.30;37.80;;;;;;5040095;28;20504;-65
2022/01/27 04:45:12;;;;;;;3.07;2.87;;;18.30;37.80;;;;;;5040304;28;20471;-65
2022/01/27 04:47:44;;;;;;;2.37;2.27;;;18.30;37.80;;;;;;5037949;28;20439;-65
2022/01/27 04:50:09;;;;;;;3.20;2.90;;;18.30;37.90;;;;;;5041093;28;20443;-65
2022/01/27 04:52:40;;;;;;;3.40;3.20;;;18.30;38.60;;;;;;5039314;28;20451;-65
2022/01/27 04:55:09;;;;;;;2.87;2.63;;;18.30;37.90;;;;;;5039764;28;20218;-65
2022/01/27 04:57:38;;;;;;;2.90;2.70;;;18.30;38.00;;;;;;5045798;28;20980;-65
2022/01/27 05:00:05;;;;;;;2.73;2.53;;;18.30;37.90;;;;;;5036685;28;20811;-65
2022/01/27 05:04:59;;;;;;;2.60;2.40;;;18.30;37.90;;;;;;5039719;28;20465;-65
2022/01/27 05:07:25;;;;;;;3.03;2.83;;;18.30;37.90;;;;;;5037772;28;20440;-65
2022/01/27 05:09:56;;;;;;;2.30;2.10;;;18.30;38.00;;;;;;5035692;28;20656;-65
2022/01/27 05:12:34;;;;;;;2.70;2.50;;;18.30;37.90;;;;;;5039013;28;20219;-65
2022/01/27 05:15:00;;;;;;;2.60;2.40;;;18.30;37.90;;;;;;5038438;28;20458;-65
2022/01/27 05:17:26;;;;;;;3.00;2.80;;;18.30;38.00;;;;;;5074784;28;20424;-65
2022/01/27 05:19:51;;;;;;;3.13;2.93;;;18.30;37.80;;;;;;5040413;28;20223;-65
2022/01/27 05:22:17;;;;;;;2.73;2.53;;;18.30;37.80;;;;;;5038863;28;20687;-65
2022/01/27 05:24:43;;;;;;;2.87;2.67;;;18.30;37.90;;;;;;5036200;28;20217;-65
2022/01/27 05:27:09;;;;;;;2.40;2.30;;;18.30;37.70;;;;;;5042094;28;20227;-65
2022/01/27 05:29:35;;;;;;;2.40;2.30;;;18.30;37.70;;;;;;5043752;28;20367;-65
2022/01/27 05:32:00;;;;;;;4.80;4.33;;;18.30;37.70;;;;;;5041110;28;20608;-65
2022/01/27 05:34:26;;;;;;;2.80;2.60;;;18.30;37.70;;;;;;5043746;28;20274;-65
2022/01/27 05:36:51;;;;;;;2.70;2.50;;;18.30;37.70;;;;;;5036342;28;20223;-65
2022/01/27 05:39:17;;;;;;;2.63;2.43;;;18.30;37.70;;;;;;5044511;28;20310;-65
2022/01/27 05:41:43;;;;;;;2.50;2.30;;;18.30;37.70;;;;;;5041229;28;20352;-65
2022/01/27 05:44:09;;;;;;;3.00;2.80;;;18.40;37.80;;;;;;5043793;28;20589;-65
2022/01/27 05:46:35;;;;;;;2.57;2.43;;;18.30;37.70;;;;;;5038656;28;20319;-67
2022/01/27 05:49:01;;;;;;;2.80;2.60;;;18.30;37.70;;;;;;5043007;28;20605;-69
2022/01/27 05:51:26;;;;;;;2.90;2.70;;;18.40;37.80;;;;;;5045133;28;20981;-68
2022/01/27 05:53:52;;;;;;;3.40;2.30;;;18.40;37.80;;;;;;5045972;28;20306;-68
2022/01/27 05:56:18;;;;;;;2.90;2.70;;;18.40;37.80;;;;;;5045045;28;20660;-67
2022/01/27 05:58:44;;;;;;;2.63;2.43;;;18.40;37.80;;;;;;5042244;28;20583;-67
2022/01/27 06:01:10;;;;;;;2.73;2.53;;;18.40;37.80;;;;;;5074883;28;20562;-67
2022/01/27 06:03:36;;;;;;;3.10;2.80;;;18.40;37.80;;;;;;5040938;28;20391;-64
2022/01/27 06:06:02;;;;;;;2.77;2.53;;;18.40;37.80;;;;;;5041929;28;20464;-65
2022/01/27 06:08:30;;;;;;;2.73;2.53;;;18.40;37.80;;;;;;5041195;28;20801;-65
2022/01/27 06:10:56;;;;;;;2.13;2.00;;;18.40;37.80;;;;;;5042756;28;20439;-64
2022/01/27 06:13:23;;;;;;;2.20;2.10;;;18.50;37.90;;;;;;5041627;28;20443;-64
2022/01/27 06:15:48;;;;;;;3.03;2.20;;;18.50;37.90;;;;;;5044219;28;20504;-64
2022/01/27 06:18:14;;;;;;;2.10;2.00;;;18.50;38.00;;;;;;5042629;28;20889;-63
2022/01/27 06:20:43;;;;;;;2.37;2.20;;;18.50;37.90;;;;;;5042508;28;20222;-63
2022/01/27 06:23:08;;;;;;;2.67;2.20;;;18.50;37.90;;;;;;5044119;28;20281;-66
2022/01/27 06:25:34;;;;;;;2.60;2.40;;;18.50;37.90;;;;;;5045957;28;20932;-65
2022/01/27 06:28:00;;;;;;;3.00;2.53;;;18.50;37.90;;;;;;5043647;28;20285;-67
2022/01/27 06:30:26;;;;;;;2.60;2.40;;;18.50;37.90;;;;;;5048733;28;20237;-65
2022/01/27 06:32:52;;;;;;;2.20;2.10;;;18.50;37.90;;;;;;5025977;28;20276;-65
2022/01/27 06:35:18;;;;;;;2.50;2.30;;;18.50;37.90;;;;;;5025184;28;20225;-65
2022/01/27 06:37:45;;;;;;;2.23;2.13;;;18.60;38.00;;;;;;5022372;28;20228;-60
2022/01/27 06:40:12;;;;;;;2.80;2.40;;;18.60;38.00;;;;;;5017977;28;20216;-64
2022/01/27 06:42:37;;;;;;;3.60;3.23;;;18.60;38.00;;;;;;5027555;28;20437;-64
2022/01/27 06:45:06;;;;;;;2.03;1.93;;;18.50;38.00;;;;;;5023344;28;21019;-64
2022/01/27 06:47:32;;;;;;;2.13;2.00;;;18.60;38.00;;;;;;5020339;28;20227;-64
2022/01/27 06:49:58;;;;;;;2.40;2.30;;;18.60;38.00;;;;;;5022739;28;20441;-63
2022/01/27 06:52:26;;;;;;;2.17;2.07;;;18.60;38.00;;;;;;5020276;28;20657;-65
2022/01/27 06:54:52;;;;;;;2.70;2.50;;;18.60;38.00;;;;;;5025012;28;20224;-63
2022/01/27 06:57:18;;;;;;;1.90;1.80;;;18.60;38.00;;;;;;5020245;28;20831;-64
2022/01/27 06:59:44;;;;;;;2.40;2.20;;;18.60;38.00;;;;;;5050110;28;20456;-63
2022/01/27 07:02:09;;;;;;;2.20;2.00;;;18.60;38.00;;;;;;5025193;28;20456;-63
2022/01/27 07:04:35;;;;;;;2.10;2.00;;;18.60;38.00;;;;;;5027164;28;20724;-63
2022/01/27 07:07:01;;;;;;;2.20;2.10;;;18.60;38.00;;;;;;5023270;28;20767;-64
2022/01/27 07:09:26;;;;;;;2.60;2.40;;;18.60;38.00;;;;;;5026175;28;20604;-65
2022/01/27 07:11:52;;;;;;;1.90;1.80;;;18.60;38.00;;;;;;5026286;28;20215;-64
2022/01/27 07:14:18;;;;;;;2.40;2.20;;;18.60;38.00;;;;;;5022071;28;20339;-64
2022/01/27 07:16:44;;;;;;;2.40;2.30;;;18.60;38.00;;;;;;5031852;28;20749;-65
2022/01/27 07:19:10;;;;;;;2.00;1.80;;;18.60;38.00;;;;;;5046139;28;20444;-64
2022/01/27 07:21:35;;;;;;;2.23;2.13;;;18.60;38.00;;;;;;5031842;28;20214;-64
2022/01/27 07:24:01;;;;;;;2.00;1.90;;;18.60;38.00;;;;;;5040339;28;20222;-65
2022/01/27 07:26:27;;;;;;;1.93;1.83;;;18.60;38.00;;;;;;5045785;28;20254;-64
2022/01/27 07:28:56;;;;;;;1.83;1.73;;;18.60;38.00;;;;;;5043325;28;20324;-64
2022/01/27 07:31:22;;;;;;;2.40;2.30;;;18.60;38.00;;;;;;5043470;28;20238;-64
2022/01/27 07:33:48;;;;;;;2.80;2.07;;;18.60;38.00;;;;;;5038197;28;20448;-63
2022/01/27 07:36:15;;;;;;;3.00;2.80;;;18.60;38.00;;;;;;5037797;28;20414;-64
2022/01/27 07:38:41;;;;;;;2.07;1.97;;;18.60;38.00;;;;;;5039169;28;20598;-63
2022/01/27 07:41:07;;;;;;;2.27;2.17;;;18.60;38.00;;;;;;5042940;28;20766;-64
2022/01/27 07:43:33;;;;;;;2.60;2.40;;;18.60;38.70;;;;;;5046367;28;20440;-64
2022/01/27 07:45:59;;;;;;;2.00;1.90;;;18.60;38.00;;;;;;5047128;28;20270;-64
2022/01/27 07:48:26;;;;;;;2.40;2.20;;;18.60;38.00;;;;;;5042392;28;20218;-63
2022/01/27 07:50:51;;;;;;;2.23;2.03;;;18.60;38.00;;;;;;5038376;28;20427;-64
2022/01/27 07:53:17;;;;;;;2.10;2.00;;;18.60;38.00;;;;;;5037659;28;20452;-64
2022/01/27 07:55:43;;;;;;;2.10;1.90;;;18.60;38.00;;;;;;5041342;28;20242;-64
2022/01/27 07:58:08;;;;;;;3.37;2.30;;;18.60;38.00;;;;;;5044046;28;20655;-64
2022/01/27 08:00:34;;;;;;;2.80;2.50;;;18.60;38.00;;;;;;5039158;28;20655;-64
2022/01/27 08:03:00;;;;;;;2.90;2.70;;;18.60;38.00;;;;;;5074368;28;20306;-64
2022/01/27 08:05:26;;;;;;;2.10;2.00;;;18.60;38.00;;;;;;5042178;28;20235;-64
2022/01/27 08:07:51;;;;;;;2.03;1.93;;;18.60;38.00;;;;;;5039816;28;20265;-64
2022/01/27 08:10:17;;;;;;;2.10;1.90;;;18.60;38.00;;;;;;5040066;28;20911;-64
2022/01/27 08:12:43;;;;;;;2.83;2.60;;;18.60;38.00;;;;;;5041356;28;20895;-64
2022/01/27 08:15:11;;;;;;;2.10;2.00;;;18.60;38.00;;;;;;5070606;28;20219;-65
2022/01/27 08:17:38;;;;;;;2.03;1.93;;;18.60;38.00;;;;;;5043415;28;20874;-66
2022/01/27 08:20:04;;;;;;;2.20;2.10;;;18.60;38.00;;;;;;5040723;28;20891;-65
2022/01/27 08:22:31;;;;;;;2.20;2.10;;;18.60;38.00;;;;;;5043225;28;20475;-66
2022/01/27 08:24:57;;;;;;;2.23;2.13;;;18.60;38.00;;;;;;5037195;28;21004;-65
2022/01/27 08:27:28;;;;;;;2.40;2.20;;;18.60;38.00;;;;;;5038551;28;20518;-64
2022/01/27 08:29:58;;;;;;;2.33;2.13;;;18.60;38.00;;;;;;5039387;28;20245;-64
2022/01/27 08:32:34;;;;;;;1.97;1.87;;;18.60;38.00;;;;;;5023911;28;20441;-64
2022/01/27 08:34:59;;;;;;;2.30;2.10;;;18.60;38.00;;;;;;5033977;28;20530;-65
2022/01/27 08:37:25;;;;;;;1.80;1.70;;;18.60;38.00;;;;;;5037541;28;20519;-64
2022/01/27 08:39:50;;;;;;;2.53;2.33;;;18.60;38.00;;;;;;5034835;28;20549;-65
2022/01/27 08:42:16;;;;;;;2.60;2.40;;;18.60;38.00;;;;;;5039896;28;20264;-65
2022/01/27 08:44:42;;;;;;;2.30;2.20;;;18.60;38.00;;;;;;5039313;28;20562;-66
2022/01/27 08:47:11;;;;;;;2.20;2.10;;;18.60;38.00;;;;;;5042557;28;20226;-65
2022/01/27 08:49:37;;;;;;;2.43;1.97;;;18.70;38.10;;;;;;5045745;28;20228;-65
2022/01/27 08:52:03;;;;;;;2.13;2.03;;;18.60;38.00;;;;;;5038190;28;20874;-64
2022/01/27 08:54:29;;;;;;;4.97;2.27;;;18.60;38.00;;;;;;5034914;28;20215;-65
2022/01/27 08:56:54;;;;;;;2.30;2.10;;;18.60;38.00;;;;;;5041607;28;20451;-64
2022/01/27 08:59:20;;;;;;;2.17;2.00;;;18.70;38.10;;;;;;5044056;28;20241;-64
2022/01/27 09:01:46;;;;;;;2.30;2.20;;;18.70;38.10;;;;;;5043405;28;20293;-64
2022/01/27 09:04:12;;;;;;;2.07;1.97;;;18.70;38.10;;;;;;5037249;28;20543;-65
2022/01/27 09:06:38;;;;;;;2.30;2.17;;;18.60;38.00;;;;;;5042194;28;20281;-64
2022/01/27 09:09:05;;;;;;;2.40;2.30;;;18.60;38.00;;;;;;5038416;28;20222;-64
2022/01/27 09:11:31;;;;;;;2.23;1.93;;;18.60;38.00;;;;;;5045042;28;20307;-64
2022/01/27 09:14:01;;;;;;;2.20;2.10;;;18.70;38.10;;;;;;5047835;28;20582;-65
2022/01/27 09:16:28;;;;;;;2.20;2.00;;;18.60;38.00;;;;;;5042383;28;20444;-65
2022/01/27 09:18:58;;;;;;;2.00;1.90;;;18.60;38.00;;;;;;5046104;28;20908;-64
2022/01/27 09:21:28;;;;;;;1.80;1.70;;;18.70;38.10;;;;;;5044381;28;20469;-65
2022/01/27 09:23:54;;;;;;;1.90;1.70;;;18.60;38.00;;;;;;5039201;28;20820;-65
2022/01/27 09:26:51;;;;;;;2.33;2.13;;;18.70;38.10;;;;;;5041842;28;20447;-65
2022/01/27 09:29:08;;;;;;;2.30;2.10;;;18.60;38.00;;;;;;5039545;28;20540;-64
2022/01/27 09:31:34;;;;;;;2.17;2.07;;;18.60;38.00;;;;;;5038446;28;20419;-65
2022/01/27 09:34:00;;;;;;;2.50;2.30;;;18.60;38.00;;;;;;5046070;28;20497;-64
2022/01/27 09:36:26;;;;;;;2.47;2.27;;;18.70;38.10;;;;;;5044754;28;20566;-64
2022/01/27 09:38:52;;;;;;;2.03;1.93;;;18.70;38.10;;;;;;5046682;28;20214;-64
2022/01/27 09:41:22;;;;;;;2.33;1.93;;;18.70;38.10;;;;;;5043576;28;20214;-64
2022/01/27 09:43:52;;;;;;;2.23;2.03;;;18.60;38.00;;;;;;5042017;28;20223;-64
2022/01/27 09:46:20;;;;;;;2.80;2.20;;;18.70;38.10;;;;;;5042853;28;23153;-64
2022/01/27 09:48:48;;;;;;;2.20;2.03;;;18.60;38.00;;;;;;5043318;28;20452;-64
2022/01/27 09:53:51;;;;;;;2.00;1.90;;;18.60;38.00;;;;;;5039469;28;20448;-64
2022/01/27 09:56:17;;;;;;;2.23;2.03;;;18.60;38.00;;;;;;5048356;28;20448;-63
2022/01/27 09:58:43;;;;;;;2.33;2.13;;;18.60;38.00;;;;;;5040508;28;20439;-64
2022/01/27 10:01:09;;;;;;;2.40;2.30;;;18.60;38.00;;;;;;5044961;28;21046;-65
2022/01/27 10:03:55;;;;;;;1.80;1.70;;;18.60;38.00;;;;;;5039374;28;20478;-64
2022/01/27 10:06:26;;;;;;;2.40;2.20;;;18.60;38.00;;;;;;5046109;28;20265;-64
2022/01/27 10:09:16;;;;;;;2.20;2.10;;;18.60;38.00;;;;;;5041990;28;20451;-64
2022/01/27 10:11:45;;;;;;;2.37;2.00;;;18.60;38.00;;;;;;5048182;28;20470;-63
2022/01/27 10:14:21;;;;;;;1.93;1.83;;;18.60;38.00;;;;;;5041901;28;20887;-63
2022/01/27 10:16:49;;;;;;;2.27;2.07;;;18.60;38.00;;;;;;5042686;28;21023;-64
2022/01/27 10:19:15;;;;;;;2.13;2.03;;;18.60;38.20;;;;;;5043908;28;20529;-64
2022/01/27 10:21:41;;;;;;;2.70;2.10;;;18.60;38.10;;;;;;5040756;28;20456;-64
2022/01/27 10:24:24;;;;;;;2.20;2.10;;;18.60;38.90;;;;;;5040504;28;20254;-63
2022/01/27 10:27:29;;;;;;;2.40;2.20;;;18.60;38.20;;;;;;5045911;28;20268;-63
2022/01/27 10:32:35;;;;;;;2.17;2.07;;;18.50;38.20;;;;;;5044378;28;20414;-63
2022/01/27 10:35:01;;;;;;;2.10;2.00;;;18.60;38.30;;;;;;5041983;28;20418;-64
2022/01/27 10:37:27;;;;;;;2.83;2.30;;;18.50;38.20;;;;;;5048727;28;20868;-64
2022/01/27 10:39:53;;;;;;;2.23;2.03;;;18.60;38.30;;;;;;5041117;28;20422;-65
2022/01/27 10:42:22;;;;;;;3.17;2.87;;;18.50;38.30;;;;;;5039449;28;20229;-66
2022/01/27 10:44:55;;;;;;;1.93;1.83;;;18.50;38.30;;;;;;5040352;28;20211;-65
2022/01/27 10:47:28;;;;;;;2.20;2.10;;;18.50;38.20;;;;;;5039487;28;20453;-64
2022/01/27 10:49:59;;;;;;;2.37;2.10;;;18.50;38.20;;;;;;5041127;28;20455;-63
2022/01/27 10:52:40;;;;;;;1.90;1.80;;;18.60;38.20;;;;;;5045799;28;20499;-64
2022/01/27 10:55:18;;;;;;;1.80;1.70;;;18.60;38.10;;;;;;5041601;28;20808;-63
2022/01/27 10:57:49;;;;;;;2.00;1.80;;;18.60;38.20;;;;;;5043874;28;20493;-63
2022/01/27 11:00:17;;;;;;;1.80;1.70;;;18.60;38.20;;;;;;5043003;28;20430;-62
2022/01/27 11:03:03;;;;;;;1.90;1.80;;;18.60;38.20;;;;;;5042209;28;20531;-63
2022/01/27 11:05:34;;;;;;;2.23;2.10;;;18.60;38.20;;;;;;5044012;28;20968;-64
2022/01/27 11:08:00;;;;;;;1.90;1.80;;;18.60;38.20;;;;;;5043630;28;20982;-63
2022/01/27 11:10:27;;;;;;;2.07;1.83;;;18.60;38.30;;;;;;5040787;28;20403;-63
2022/01/27 11:12:53;;;;;;;2.00;1.90;;;18.50;38.20;;;;;;5042517;28;20215;-63
2022/01/27 11:15:20;;;;;;;2.57;2.37;;;18.60;38.30;;;;;;5045695;28;20770;-63
2022/01/27 11:17:47;;;;;;;2.10;2.00;;;18.60;38.30;;;;;;5041710;28;20438;-63
2022/01/27 11:22:58;;;;;;;2.40;2.30;;;18.60;38.40;;;;;;5038606;28;21011;-63
2022/01/27 11:28:03;;;;;;;1.83;1.73;;;18.50;38.30;;;;;;5039455;28;20930;-66
2022/01/27 11:30:58;;;;;;;1.87;1.77;;;18.50;38.30;;;;;;5040509;28;20467;-63
2022/01/27 11:33:34;;;;;;;2.00;1.90;;;18.50;38.40;;;;;;5044260;28;20968;-63
2022/01/27 11:36:19;;;;;;;1.70;1.60;;;18.50;38.40;;;;;;5046361;28;21942;-63
2022/01/27 11:38:46;;;;;;;2.00;1.90;;;18.50;38.40;;;;;;5044357;28;20462;-63
2022/01/27 11:41:56;;;;;;;1.83;1.63;;;18.50;38.40;;;;;;5039944;28;20970;-63
2022/01/27 11:44:24;;;;;;;1.80;1.70;;;18.50;38.40;;;;;;5071032;28;20413;-63
2022/01/27 11:47:20;;;;;;;1.67;1.57;;;18.50;38.50;;;;;;5069335;28;20426;-63
2022/01/27 11:50:12;;;;;;;2.10;2.00;;;18.50;38.50;;;;;;5041595;28;20538;-63
2022/01/27 11:52:51;;;;;;;1.90;1.80;;;18.50;38.50;;;;;;5039977;28;20422;-63
2022/01/27 11:55:26;;;;;;;2.20;1.83;;;18.50;38.50;;;;;;5041594;28;20451;-66
2022/01/27 11:57:56;;;;;;;1.40;1.30;;;18.50;38.50;;;;;;5045680;28;20516;-67
2022/01/27 12:00:29;;;;;;;1.53;1.43;;;18.50;38.50;;;;;;5031437;28;20437;-66
2022/01/27 12:03:01;;;;;;;1.73;1.63;;;18.50;38.50;;;;;;5040010;28;20502;-66
2022/01/27 12:05:28;;;;;;;2.10;1.70;;;18.50;38.50;;;;;;5024444;28;20567;-66
2022/01/27 12:08:12;;;;;;;1.90;1.80;;;18.50;38.50;;;;;;5034304;28;20444;-66
2022/01/27 12:10:54;;;;;;;2.20;2.00;;;18.50;39.30;;;;;;5037527;28;20423;-65
2022/01/27 12:19:02;;;;;;;1.90;1.80;;;18.50;38.40;;;;;;5039462;28;20427;-64
2022/01/27 12:21:29;;;;;;;1.60;1.50;;;18.50;38.40;;;;;;5037857;28;20423;-64
2022/01/27 12:24:14;;;;;;;1.73;1.63;;;18.50;38.50;;;;;;5047320;28;20530;-65
2022/01/27 12:26:51;;;;;;;1.93;1.83;;;18.50;38.40;;;;;;5043564;28;20445;-64
2022/01/27 12:29:39;;;;;;;1.67;1.50;;;18.50;38.40;;;;;;5040711;28;20451;-64
2022/01/27 12:32:17;;;;;;;1.63;1.53;;;18.60;38.50;;;;;;5040133;28;20463;-64
2022/01/27 12:34:51;;;;;;;1.60;1.50;;;18.60;38.60;;;;;;5035701;28;21037;-64
2022/01/27 12:37:20;;;;;;;1.83;1.73;;;18.60;38.60;;;;;;5040974;28;20434;-64
2022/01/27 12:39:52;;;;;;;2.17;2.07;;;18.50;38.50;;;;;;5071514;28;20797;-64
2022/01/27 12:42:18;;;;;;;2.10;2.00;;;18.50;38.50;;;;;;5040352;28;20423;-64
2022/01/27 12:45:00;;;;;;;3.10;1.60;;;18.50;38.50;;;;;;5070752;28;20440;-64
2022/01/27 12:47:28;;;;;;;3.07;1.63;;;18.50;38.50;;;;;;5044934;28;20477;-65
2022/01/27 12:50:08;;;;;;;1.47;1.37;;;18.50;38.50;;;;;;5042972;28;20487;-64
2022/01/27 12:52:41;;;;;;;2.07;1.97;;;18.50;38.60;;;;;;5048978;28;20502;-66
2022/01/27 12:55:20;;;;;;;1.53;1.43;;;18.60;38.70;;;;;;5041088;28;20460;-65
2022/01/27 12:58:04;;;;;;;1.50;1.40;;;18.50;38.50;;;;;;5049097;28;20519;-64
2022/01/27 13:00:43;;;;;;;1.73;1.63;;;18.50;38.50;;;;;;5020140;28;20444;-65
2022/01/27 13:03:10;;;;;;;1.30;1.20;;;18.50;38.60;;;;;;5019295;28;20452;-64
2022/01/27 13:05:36;;;;;;;2.07;1.70;;;18.50;38.50;;;;;;5016437;28;20471;-64
2022/01/27 13:08:09;;;;;;;1.43;1.33;;;18.50;38.50;;;;;;5025603;28;20453;-64
2022/01/27 13:10:35;;;;;;;1.90;1.80;;;18.50;38.50;;;;;;5020345;28;20431;-64
2022/01/27 13:13:19;;;;;;;1.70;1.60;;;18.60;38.70;;;;;;5022802;28;20482;-64
2022/01/27 13:15:45;;;;;;;1.60;1.50;;;18.50;38.50;;;;;;5025055;28;20427;-64
2022/01/27 13:18:22;;;;;;;1.60;1.50;;;18.50;38.60;;;;;;5018657;28;20427;-64
2022/01/27 13:20:53;;;;;;;1.63;1.53;;;18.50;38.60;;;;;;5017430;28;20423;-64
2022/01/27 13:26:02;;;;;;;1.80;1.70;;;18.50;38.60;;;;;;5042275;28;20441;-65
2022/01/27 13:28:32;;;;;;;1.60;1.50;;;18.50;38.60;;;;;;5043801;28;21054;-65
2022/01/27 13:31:12;;;;;;;1.60;1.50;;;18.50;38.60;;;;;;5042201;28;20426;-64
2022/01/27 13:33:43;;;;;;;1.50;1.40;;;18.50;38.60;;;;;;5042254;28;20490;-64
2022/01/27 13:36:24;;;;;;;1.60;1.50;;;18.50;38.70;;;;;;5037277;28;20464;-64
2022/01/27 13:39:14;;;;;;;1.60;1.50;;;18.50;38.70;;;;;;5035774;28;20444;-64
2022/01/27 13:41:45;;;;;;;1.40;1.30;;;18.50;38.60;;;;;;5043742;28;20455;-64
2022/01/27 13:44:13;;;;;;;1.70;1.60;;;18.50;38.70;;;;;;5044380;28;20788;-63
2022/01/27 13:46:44;;;;;;;1.50;1.40;;;18.50;38.70;;;;;;5040752;28;20513;-63
2022/01/27 13:49:19;;;;;;;1.67;1.57;;;18.50;38.60;;;;;;5040787;28;20429;-63
2022/01/27 13:51:51;;;;;;;1.53;1.43;;;18.50;38.70;;;;;;5034198;28;20430;-64
2022/01/27 13:54:18;;;;;;;2.10;1.40;;;18.50;38.70;;;;;;5037165;28;20963;-64
2022/01/27 13:56:46;;;;;;;1.70;1.60;;;18.50;38.70;;;;;;5040307;28;20426;-64
2022/01/27 13:59:28;;;;;;;1.63;1.53;;;18.50;38.70;;;;;;5039103;28;20436;-67
2022/01/27 14:02:20;;;;;;;1.47;1.37;;;18.50;38.70;;;;;;5043286;28;20506;-67